Time;durP1;ratioP1;P1;durP2;ratioP2;P2;SDS_P1;SDS_P2;PMS_P1;PMS_P2;Temp;Humidity;BMP_temperature;BMP_pressure;BME280_temperature;BME280_humidity;BME280_pressure;Samples;Min_cycle;Max_cycle;Signal;HPM_P1;HPM_P2
2021/04/09 00:00:51;;;;;;;19.55;3.95;;;;;;;;;;4110125;34;21662;-86
2021/04/09 00:03:20;;;;;;;10.63;3.58;;;;;;;;;;4110461;34;20084;-85
2021/04/09 00:05:48;;;;;;;15.27;4.18;;;;;;;;;;4115331;34;20064;-86
2021/04/09 00:08:19;;;;;;;11.20;3.85;;;;;;;;;;4108946;34;20303;-86
2021/04/09 00:10:47;;;;;;;12.13;3.45;;;;;;;;;;4120724;34;20119;-85
2021/04/09 00:13:25;;;;;;;15.23;4.18;;;;;;;;;;4117080;34;20083;-86
2021/04/09 00:15:53;;;;;;;10.20;3.50;;;;;;;;;;4116304;34;20058;-86
2021/04/09 00:18:26;;;;;;;11.02;3.97;;;;;;;;;;4115988;34;20081;-86
2021/04/09 00:20:55;;;;;;;13.48;3.72;;;;;;;;;;4110879;34;20071;-86
2021/04/09 00:23:24;;;;;;;14.73;4.00;;;;;;;;;;4120622;34;20057;-86
2021/04/09 00:25:53;;;;;;;14.05;4.15;;;;;;;;;;4116353;34;20114;-86
2021/04/09 00:28:21;;;;;;;11.02;3.78;;;;;;;;;;4115156;34;20394;-86
2021/04/09 00:30:49;;;;;;;16.77;4.60;;;;;;;;;;4113930;34;20072;-86
2021/04/09 00:33:17;;;;;;;9.32;3.80;;;;;;;;;;4113114;34;20508;-86
2021/04/09 00:35:45;;;;;;;15.60;4.28;;;;;;;;;;4113917;34;20069;-85
2021/04/09 00:38:13;;;;;;;14.68;4.30;;;;;;;;;;4108389;34;20306;-85
2021/04/09 00:40:42;;;;;;;13.23;3.90;;;;;;;;;;4115306;34;20091;-86
2021/04/09 00:43:15;;;;;;;11.90;4.45;;;;;;;;;;4115386;34;20075;-86
2021/04/09 00:45:43;;;;;;;14.77;4.60;;;;;;;;;;4111504;34;20121;-86
2021/04/09 00:48:12;;;;;;;15.43;4.40;;;;;;;;;;4115806;34;20668;-85
2021/04/09 00:50:39;;;;;;;12.18;4.03;;;;;;;;;;4105733;34;20524;-85
2021/04/09 00:53:10;;;;;;;14.10;4.25;;;;;;;;;;4106862;34;20057;-86
2021/04/09 00:55:40;;;;;;;8.60;3.28;;;;;;;;;;4105426;34;20061;-86
2021/04/09 00:58:09;;;;;;;9.57;3.37;;;;;;;;;;4104434;34;20069;-86
2021/04/09 01:00:37;;;;;;;8.18;3.37;;;;;;;;;;4106770;34;20097;-87
2021/04/09 01:03:05;;;;;;;11.05;3.95;;;;;;;;;;4107106;34;20057;-86
2021/04/09 01:05:34;;;;;;;12.40;4.20;;;;;;;;;;4113787;34;20085;-86
2021/04/09 01:08:09;;;;;;;12.27;4.20;;;;;;;;;;4097045;34;20117;-86
2021/04/09 01:10:39;;;;;;;12.80;5.45;;;;;;;;;;4103808;34;20173;-86
2021/04/09 01:13:07;;;;;;;10.85;4.78;;;;;;;;;;4111510;34;20083;-83
2021/04/09 01:15:37;;;;;;;11.20;4.22;;;;;;;;;;4109344;34;20121;-86
2021/04/09 01:18:05;;;;;;;14.70;4.12;;;;;;;;;;4096989;34;20197;-86
2021/04/09 01:20:39;;;;;;;11.52;3.85;;;;;;;;;;4101130;34;20109;-85
2021/04/09 01:23:15;;;;;;;10.10;3.70;;;;;;;;;;4106436;34;20517;-87
2021/04/09 01:25:51;;;;;;;8.35;3.45;;;;;;;;;;4101639;34;20552;-86
2021/04/09 01:28:30;;;;;;;11.02;3.83;;;;;;;;;;4098187;34;20115;-86
2021/04/09 01:31:04;;;;;;;12.37;4.05;;;;;;;;;;4105361;34;20174;-86
2021/04/09 01:33:32;;;;;;;;;;;;;;;;;;4109885;34;20128;-86
2021/04/09 01:36:05;;;;;;;14.23;4.20;;;;;;;;;;4093533;34;19953;-86
2021/04/09 01:38:37;;;;;;;10.80;4.03;;;;;;;;;;4112197;34;20049;-86
2021/04/09 01:41:10;;;;;;;13.55;4.65;;;;;;;;;;4112761;34;20071;-87
2021/04/09 01:43:39;;;;;;;11.18;4.20;;;;;;;;;;4102960;34;20526;-85
2021/04/09 01:46:08;;;;;;;9.57;4.47;;;;;;;;;;4098904;34;20053;-86
2021/04/09 01:48:39;;;;;;;15.07;4.60;;;;;;;;;;4104513;34;20150;-86
2021/04/09 01:51:13;;;;;;;12.73;3.87;;;;;;;;;;4105169;34;20970;-86
2021/04/09 01:53:42;;;;;;;11.60;4.22;;;;;;;;;;4092777;34;20641;-86
2021/04/09 01:56:12;;;;;;;10.75;4.07;;;;;;;;;;4099685;34;20089;-86
2021/04/09 01:58:44;;;;;;;12.50;10.23;;;;;;;;;;4107752;34;20527;-85
2021/04/09 02:01:19;;;;;;;11.00;3.78;;;;;;;;;;4098739;34;20761;-86
2021/04/09 02:03:52;;;;;;;12.52;3.75;;;;;;;;;;4094781;34;20099;-86
2021/04/09 02:06:21;;;;;;;14.43;4.03;;;;;;;;;;4103153;34;20061;-85
2021/04/09 02:08:50;;;;;;;15.35;3.87;;;;;;;;;;4107500;34;20057;-86
2021/04/09 02:11:20;;;;;;;9.88;3.30;;;;;;;;;;4107370;34;20162;-86
2021/04/09 02:13:50;;;;;;;10.60;3.12;;;;;;;;;;4101303;34;20100;-83
2021/04/09 02:16:19;;;;;;;9.57;2.83;;;;;;;;;;4110018;34;20158;-84
2021/04/09 02:18:50;;;;;;;12.50;3.28;;;;;;;;;;4108243;34;20069;-83
2021/04/09 02:21:19;;;;;;;9.52;3.35;;;;;;;;;;4100414;34;20073;-84
2021/04/09 02:23:47;;;;;;;10.77;3.20;;;;;;;;;;4096474;34;20722;-83
2021/04/09 02:26:15;;;;;;;6.60;2.45;;;;;;;;;;4106133;34;20041;-86
2021/04/09 02:28:46;;;;;;;10.75;2.70;;;;;;;;;;4108285;34;20065;-84
2021/04/09 02:31:14;;;;;;;7.03;2.70;;;;;;;;;;4108099;34;20160;-84
2021/04/09 02:33:44;;;;;;;9.60;2.70;;;;;;;;;;4100646;34;20084;-84
2021/04/09 02:36:18;;;;;;;8.77;2.50;;;;;;;;;;4108001;34;20532;-84
2021/04/09 02:38:48;;;;;;;9.55;2.55;;;;;;;;;;4103588;34;20085;-83
2021/04/09 02:41:18;;;;;;;6.68;2.20;;;;;;;;;;4098908;34;20057;-83
2021/04/09 02:43:48;;;;;;;4.28;2.10;;;;;;;;;;4095108;34;20143;-84
2021/04/09 02:46:36;;;;;;;8.48;2.12;;;;;;;;;;4110989;34;20119;-83
2021/04/09 02:49:14;;;;;;;7.60;2.00;;;;;;;;;;4114236;34;20058;-84
2021/04/09 02:51:43;;;;;;;5.95;1.95;;;;;;;;;;4103715;34;20057;-84
2021/04/09 02:54:11;;;;;;;6.12;1.98;;;;;;;;;;4104578;34;20104;-84
2021/04/09 02:56:40;;;;;;;4.60;2.08;;;;;;;;;;4110894;34;20049;-84
2021/04/09 02:59:12;;;;;;;6.22;2.45;;;;;;;;;;4110984;34;20061;-84
2021/04/09 03:01:40;;;;;;;10.52;2.40;;;;;;;;;;4102144;34;20599;-84
2021/04/09 03:04:13;;;;;;;9.15;2.90;;;;;;;;;;4101185;34;20877;-84
2021/04/09 03:06:43;;;;;;;7.70;2.55;;;;;;;;;;4108183;34;20231;-84
2021/04/09 03:09:12;;;;;;;5.85;2.55;;;;;;;;;;4103720;34;20108;-83
2021/04/09 03:14:34;;;;;;;8.02;2.70;;;;;;;;;;4117061;34;20057;-79
2021/04/09 03:17:04;;;;;;;12.98;3.00;;;;;;;;;;4126675;34;20148;-80
2021/04/09 03:19:32;;;;;;;9.15;2.58;;;;;;;;;;4123595;34;20049;-80
2021/04/09 03:22:07;;;;;;;9.30;3.15;;;;;;;;;;4186652;29;20452;-81
2021/04/09 03:24:36;;;;;;;10.57;2.78;;;;;;;;;;4119088;34;20610;-79
2021/04/09 03:27:14;;;;;;;7.55;2.28;;;;;;;;;;4122825;34;20069;-81
2021/04/09 03:29:43;;;;;;;10.85;2.65;;;;;;;;;;4111010;34;20103;-80
2021/04/09 03:32:14;;;;;;;7.95;2.50;;;;;;;;;;4121316;34;20628;-79
2021/04/09 03:34:42;;;;;;;8.90;2.70;;;;;;;;;;4125257;34;20134;-80
2021/04/09 03:37:10;;;;;;;8.25;2.33;;;;;;;;;;4121128;34;20461;-80
2021/04/09 03:39:41;;;;;;;6.15;2.35;;;;;;;;;;4113431;34;20061;-80
2021/04/09 03:42:10;;;;;;;12.25;2.55;;;;;;;;;;4119584;34;20087;-80
2021/04/09 03:44:38;;;;;;;39.72;31.08;;;;;;;;;;4118989;34;20447;-79
2021/04/09 03:47:09;;;;;;;9.07;2.58;;;;;;;;;;4117095;34;20069;-80
2021/04/09 03:49:38;;;;;;;6.78;2.30;;;;;;;;;;4120853;34;20842;-80
2021/04/09 03:52:23;;;;;;;7.07;2.28;;;;;;;;;;4128801;34;20465;-80
2021/04/09 03:54:52;;;;;;;5.82;2.25;;;;;;;;;;4124890;34;20099;-80
2021/04/09 03:57:21;;;;;;;4.35;1.90;;;;;;;;;;4119801;34;20064;-80
2021/04/09 03:59:51;;;;;;;34.13;19.27;;;;;;;;;;4117528;34;20053;-80
2021/04/09 04:02:19;;;;;;;22.98;18.52;;;;;;;;;;4117987;34;20083;-82
2021/04/09 04:04:50;;;;;;;15.15;9.57;;;;;;;;;;4123422;34;20169;-80
2021/04/09 04:07:21;;;;;;;13.57;3.28;;;;;;;;;;4115608;34;20116;-81
2021/04/09 04:09:50;;;;;;;24.10;15.20;;;;;;;;;;4115849;34;20883;-81
2021/04/09 04:12:19;;;;;;;39.83;22.62;;;;;;;;;;4116340;34;20432;-80
2021/04/09 04:14:51;;;;;;;40.50;23.65;;;;;;;;;;4120525;34;20377;-81
2021/04/09 04:17:20;;;;;;;43.22;22.00;;;;;;;;;;4109781;34;20504;-81
2021/04/09 04:19:49;;;;;;;12.73;2.72;;;;;;;;;;4115471;34;20109;-80
2021/04/09 04:22:17;;;;;;;41.37;30.27;;;;;;;;;;4122116;34;20069;-81
2021/04/09 04:24:46;;;;;;;9.93;2.95;;;;;;;;;;4124138;34;20121;-80
2021/04/09 04:27:13;;;;;;;8.27;2.42;;;;;;;;;;4115378;34;20348;-80
2021/04/09 04:29:41;;;;;;;21.75;15.02;;;;;;;;;;4115189;34;20120;-80
2021/04/09 04:32:10;;;;;;;38.83;22.05;;;;;;;;;;4122406;34;20054;-80
2021/04/09 04:34:40;;;;;;;4.62;2.42;;;;;;;;;;4133639;34;20100;-80
2021/04/09 04:37:10;;;;;;;9.82;2.87;;;;;;;;;;4111963;34;20143;-80
2021/04/09 04:39:38;;;;;;;31.15;18.02;;;;;;;;;;4116568;34;20065;-80
2021/04/09 04:42:06;;;;;;;40.10;24.40;;;;;;;;;;4115834;34;20515;-79
2021/04/09 04:44:36;;;;;;;14.70;3.15;;;;;;;;;;4118693;34;20138;-81
2021/04/09 04:47:04;;;;;;;25.88;19.08;;;;;;;;;;4110901;34;20143;-79
2021/04/09 04:49:33;;;;;;;10.10;3.87;;;;;;;;;;4117097;34;20101;-79
2021/04/09 04:52:01;;;;;;;8.48;2.55;;;;;;;;;;4122358;34;20080;-80
2021/04/09 04:54:30;;;;;;;15.40;12.10;;;;;;;;;;4116304;34;20449;-82
2021/04/09 04:57:02;;;;;;;9.43;2.35;;;;;;;;;;4110487;34;20100;-80
2021/04/09 04:59:31;;;;;;;40.58;30.33;;;;;;;;;;4112933;34;20284;-81
2021/04/09 05:02:01;;;;;;;19.87;15.73;;;;;;;;;;4113832;34;20076;-80
2021/04/09 05:04:29;;;;;;;9.75;2.75;;;;;;;;;;4118826;34;20187;-80
2021/04/09 05:06:57;;;;;;;12.98;2.80;;;;;;;;;;4115587;34;20068;-80
2021/04/09 05:09:29;;;;;;;11.02;3.50;;;;;;;;;;4128120;34;20204;-81
2021/04/09 05:11:59;;;;;;;11.38;2.60;;;;;;;;;;4118283;34;20061;-80
2021/04/09 05:14:27;;;;;;;11.68;2.67;;;;;;;;;;4112474;34;20049;-80
2021/04/09 05:16:55;;;;;;;19.92;9.05;;;;;;;;;;4114764;34;20057;-81
2021/04/09 05:19:24;;;;;;;11.73;3.00;;;;;;;;;;4112534;34;20611;-81
2021/04/09 05:21:52;;;;;;;35.08;21.75;;;;;;;;;;4113184;34;20328;-80
2021/04/09 05:24:22;;;;;;;37.25;23.33;;;;;;;;;;4113846;34;20147;-80
2021/04/09 05:26:55;;;;;;;37.28;24.15;;;;;;;;;;4114176;34;20057;-81
2021/04/09 05:29:29;;;;;;;35.28;21.23;;;;;;;;;;4117621;34;20050;-82
2021/04/09 05:31:57;;;;;;;30.88;22.90;;;;;;;;;;4113770;34;20128;-81
2021/04/09 05:34:26;;;;;;;39.85;27.77;;;;;;;;;;4113292;34;20509;-82
2021/04/09 05:36:54;;;;;;;42.80;30.20;;;;;;;;;;4117649;34;20060;-80
2021/04/09 05:39:25;;;;;;;37.20;28.10;;;;;;;;;;4121643;34;20093;-81
2021/04/09 05:41:53;;;;;;;37.70;23.73;;;;;;;;;;4119537;34;20077;-81
2021/04/09 05:44:25;;;;;;;39.97;24.20;;;;;;;;;;4120170;34;20083;-81
2021/04/09 05:46:56;;;;;;;46.50;22.70;;;;;;;;;;4112006;34;20096;-81
2021/04/09 05:49:24;;;;;;;46.47;28.30;;;;;;;;;;4120657;34;20352;-80
2021/04/09 05:51:52;;;;;;;42.67;26.58;;;;;;;;;;4120557;34;20369;-81
2021/04/09 05:54:20;;;;;;;54.20;32.63;;;;;;;;;;4111283;34;20098;-80
2021/04/09 05:56:48;;;;;;;51.85;31.17;;;;;;;;;;4116752;34;20369;-80
2021/04/09 05:59:17;;;;;;;47.85;26.65;;;;;;;;;;4121100;34;20081;-81
2021/04/09 06:01:45;;;;;;;51.42;31.08;;;;;;;;;;4120419;34;20109;-80
2021/04/09 06:04:14;;;;;;;54.03;32.42;;;;;;;;;;4115301;34;20503;-82
2021/04/09 06:06:42;;;;;;;49.85;30.80;;;;;;;;;;4113519;34;20507;-80
2021/04/09 06:09:10;;;;;;;44.80;25.40;;;;;;;;;;4115405;34;20120;-80
2021/04/09 06:11:38;;;;;;;44.72;28.52;;;;;;;;;;4115720;34;20801;-80
2021/04/09 06:14:06;;;;;;;41.85;25.55;;;;;;;;;;4117520;34;20127;-81
2021/04/09 06:16:34;;;;;;;38.15;24.70;;;;;;;;;;4116107;34;20072;-80
2021/04/09 06:19:04;;;;;;;40.03;23.90;;;;;;;;;;4114869;34;20121;-81
2021/04/09 06:21:32;;;;;;;44.70;27.30;;;;;;;;;;4117047;34;20116;-80
2021/04/09 06:24:00;;;;;;;45.75;23.90;;;;;;;;;;4116497;34;20143;-81
2021/04/09 06:26:30;;;;;;;47.45;26.65;;;;;;;;;;4114908;34;20104;-81
2021/04/09 06:28:58;;;;;;;43.35;27.75;;;;;;;;;;4117265;34;20430;-80
2021/04/09 06:31:26;;;;;;;47.65;28.65;;;;;;;;;;4123042;34;20131;-81
2021/04/09 06:33:56;;;;;;;50.25;35.38;;;;;;;;;;4114245;34;20553;-81
2021/04/09 06:36:24;;;;;;;46.63;25.60;;;;;;;;;;4119818;34;20261;-80
2021/04/09 06:38:52;;;;;;;45.92;28.50;;;;;;;;;;4118770;34;20464;-80
2021/04/09 06:41:20;;;;;;;44.30;26.45;;;;;;;;;;4113727;34;20120;-81
2021/04/09 06:43:50;;;;;;;43.15;25.70;;;;;;;;;;4109616;34;20166;-81
2021/04/09 06:46:18;;;;;;;41.03;25.00;;;;;;;;;;4123499;34;20088;-80
2021/04/09 06:48:46;;;;;;;46.28;30.12;;;;;;;;;;4125709;34;20069;-80
2021/04/09 06:51:17;;;;;;;50.10;30.27;;;;;;;;;;4119793;34;20552;-80
2021/04/09 06:53:47;;;;;;;47.22;29.27;;;;;;;;;;4114585;34;20445;-80
2021/04/09 06:56:16;;;;;;;40.75;24.87;;;;;;;;;;4123530;34;20456;-80
2021/04/09 06:58:48;;;;;;;45.47;24.95;;;;;;;;;;4119207;34;20083;-81
2021/04/09 07:01:17;;;;;;;45.55;28.60;;;;;;;;;;4114989;34;20144;-81
2021/04/09 07:03:45;;;;;;;44.15;28.38;;;;;;;;;;4112120;34;20130;-82
2021/04/09 07:06:15;;;;;;;49.45;29.73;;;;;;;;;;4135897;34;20098;-80
2021/04/09 07:08:45;;;;;;;33.72;17.27;;;;;;;;;;4115431;34;20069;-80
2021/04/09 07:11:13;;;;;;;18.10;13.52;;;;;;;;;;4127919;34;20751;-80
2021/04/09 07:13:47;;;;;;;15.80;6.47;;;;;;;;;;4123239;34;20125;-79
2021/04/09 07:16:16;;;;;;;16.02;8.30;;;;;;;;;;4115942;34;20083;-81
2021/04/09 07:19:04;;;;;;;27.27;18.25;;;;;;;;;;4115755;34;20256;-80
2021/04/09 07:21:34;;;;;;;39.97;29.20;;;;;;;;;;4123060;34;20058;-81
2021/04/09 07:24:13;;;;;;;15.25;3.45;;;;;;;;;;4115917;34;20761;-81
2021/04/09 07:26:46;;;;;;;23.25;13.30;;;;;;;;;;4124572;34;20077;-80
2021/04/09 07:29:32;;;;;;;10.07;2.78;;;;;;;;;;4126372;34;20079;-82
2021/04/09 07:32:08;;;;;;;12.10;2.50;;;;;;;;;;4110982;34;20560;-80
2021/04/09 07:34:54;;;;;;;27.83;19.25;;;;;;;;;;4107153;34;20157;-80
2021/04/09 07:37:23;;;;;;;9.38;3.45;;;;;;;;;;4118597;34;20092;-80
2021/04/09 07:39:55;;;;;;;9.68;3.15;;;;;;;;;;4122234;34;20092;-81
2021/04/09 07:42:30;;;;;;;10.10;2.60;;;;;;;;;;4119649;34;20061;-81
2021/04/09 07:45:00;;;;;;;12.10;2.65;;;;;;;;;;4118044;34;20049;-81
2021/04/09 07:47:30;;;;;;;10.70;2.67;;;;;;;;;;4116607;34;20389;-83
2021/04/09 07:50:14;;;;;;;9.57;2.47;;;;;;;;;;4129164;34;20114;-81
2021/04/09 07:52:44;;;;;;;10.88;2.35;;;;;;;;;;4119033;34;20531;-83
2021/04/09 07:55:16;;;;;;;9.57;2.55;;;;;;;;;;4112278;34;20138;-81
2021/04/09 07:57:44;;;;;;;13.32;2.20;;;;;;;;;;4119256;34;20069;-81
2021/04/09 08:00:19;;;;;;;8.43;1.90;;;;;;;;;;4119299;34;20127;-81
2021/04/09 08:02:48;;;;;;;5.37;1.90;;;;;;;;;;4116227;34;20418;-81
2021/04/09 08:05:17;;;;;;;6.10;1.80;;;;;;;;;;4118711;34;20072;-82
2021/04/09 08:07:44;;;;;;;4.45;1.60;;;;;;;;;;4117101;34;20061;-82
2021/04/09 08:10:14;;;;;;;6.12;1.60;;;;;;;;;;4125765;34;20068;-81
2021/04/09 08:12:43;;;;;;;3.60;1.20;;;;;;;;;;4122290;34;20389;-81
2021/04/09 08:15:13;;;;;;;5.80;1.40;;;;;;;;;;4115776;34;20401;-81
2021/04/09 08:17:41;;;;;;;5.68;1.60;;;;;;;;;;4124507;34;20065;-82
2021/04/09 08:20:13;;;;;;;4.72;1.37;;;;;;;;;;4114436;34;20080;-81
2021/04/09 08:22:42;;;;;;;4.18;1.37;;;;;;;;;;4122222;34;20060;-82
2021/04/09 08:25:10;;;;;;;3.15;1.20;;;;;;;;;;4120355;34;20096;-81
2021/04/09 08:27:41;;;;;;;6.28;1.40;;;;;;;;;;4124758;34;20053;-81
2021/04/09 08:30:09;;;;;;;5.25;1.30;;;;;;;;;;4128668;34;20096;-81
2021/04/09 08:32:38;;;;;;;5.15;1.52;;;;;;;;;;4113846;34;20037;-81
2021/04/09 08:35:08;;;;;;;6.10;1.70;;;;;;;;;;4117041;34;20062;-79
2021/04/09 08:37:36;;;;;;;7.10;1.40;;;;;;;;;;4118886;34;20512;-80
2021/04/09 08:40:05;;;;;;;5.68;1.73;;;;;;;;;;4118813;34;20107;-80
2021/04/09 08:42:39;;;;;;;7.22;1.83;;;;;;;;;;4117017;34;20473;-79
2021/04/09 08:45:14;;;;;;;5.53;1.55;;;;;;;;;;4123092;34;20081;-79
2021/04/09 08:47:45;;;;;;;6.15;1.90;;;;;;;;;;4123543;34;20865;-81
2021/04/09 08:50:14;;;;;;;6.40;1.70;;;;;;;;;;4125942;34;20083;-80
2021/04/09 08:52:44;;;;;;;5.12;1.60;;;;;;;;;;4124958;34;20103;-80
2021/04/09 08:55:17;;;;;;;6.72;1.70;;;;;;;;;;4115076;34;20105;-80
2021/04/09 08:57:46;;;;;;;7.10;1.90;;;;;;;;;;4120625;34;20147;-81
2021/04/09 09:00:23;;;;;;;5.40;1.75;;;;;;;;;;4118458;34;20456;-79
2021/04/09 09:02:54;;;;;;;4.30;1.52;;;;;;;;;;4128026;34;20076;-79
2021/04/09 09:05:30;;;;;;;5.65;1.40;;;;;;;;;;4122565;34;20113;-79
2021/04/09 09:08:01;;;;;;;5.28;1.40;;;;;;;;;;4117254;34;20151;-81
2021/04/09 09:10:29;;;;;;;5.70;1.30;;;;;;;;;;4117749;34;20065;-79
2021/04/09 09:13:06;;;;;;;4.68;1.70;;;;;;;;;;4118978;34;20048;-79
2021/04/09 09:15:44;;;;;;;4.10;1.42;;;;;;;;;;4119273;34;20092;-79
2021/04/09 09:18:25;;;;;;;4.97;1.70;;;;;;;;;;4119183;34;20166;-79
2021/04/09 09:21:13;;;;;;;7.60;1.70;;;;;;;;;;4123421;34;20148;-80
2021/04/09 09:23:44;;;;;;;7.20;1.95;;;;;;;;;;4123481;34;20131;-79
2021/04/09 09:26:23;;;;;;;4.00;1.17;;;;;;;;;;4114259;34;20136;-80
2021/04/09 09:29:07;;;;;;;5.37;1.45;;;;;;;;;;4109892;34;20426;-81
2021/04/09 09:31:36;;;;;;;7.62;1.60;;;;;;;;;;4114285;34;20548;-80
2021/04/09 09:34:19;;;;;;;4.87;1.50;;;;;;;;;;4128340;34;20095;-80
2021/04/09 09:37:00;;;;;;;5.35;1.40;;;;;;;;;;4125140;34;20045;-80
2021/04/09 09:39:35;;;;;;;4.50;1.52;;;;;;;;;;4110214;34;20358;-80
2021/04/09 09:42:06;;;;;;;5.72;1.70;;;;;;;;;;4121183;34;20491;-78
2021/04/09 09:44:44;;;;;;;5.22;1.65;;;;;;;;;;4120798;34;20098;-79
2021/04/09 09:47:22;;;;;;;6.00;1.48;;;;;;;;;;4114852;34;20113;-77
2021/04/09 09:50:07;;;;;;;2.97;1.30;;;;;;;;;;4116088;34;20103;-78
2021/04/09 09:52:45;;;;;;;3.05;1.42;;;;;;;;;;4116798;34;20057;-79
2021/04/09 09:55:15;;;;;;;5.22;1.30;;;;;;;;;;4117766;34;20053;-78
2021/04/09 09:57:46;;;;;;;3.37;1.40;;;;;;;;;;4117092;34;20073;-78
2021/04/09 10:00:14;;;;;;;2.28;1.10;;;;;;;;;;4114620;34;20573;-78
2021/04/09 10:02:43;;;;;;;4.90;1.50;;;;;;;;;;4115553;34;20120;-78
2021/04/09 10:05:12;;;;;;;4.68;1.30;;;;;;;;;;4121532;34;20085;-78
2021/04/09 10:07:40;;;;;;;4.93;1.50;;;;;;;;;;4117255;34;20184;-78
2021/04/09 10:10:08;;;;;;;3.90;1.30;;;;;;;;;;4111470;34;20077;-78
2021/04/09 10:12:36;;;;;;;2.87;1.30;;;;;;;;;;4117662;34;20096;-79
2021/04/09 10:15:04;;;;;;;4.80;1.20;;;;;;;;;;4116979;34;20073;-78
2021/04/09 10:17:33;;;;;;;3.45;1.80;;;;;;;;;;4126227;34;20175;-78
2021/04/09 10:20:02;;;;;;;3.65;1.17;;;;;;;;;;4116259;34;20414;-78
2021/04/09 10:22:30;;;;;;;5.05;1.50;;;;;;;;;;4121010;34;20076;-78
2021/04/09 10:24:58;;;;;;;3.65;1.40;;;;;;;;;;4116839;34;20175;-77
2021/04/09 10:27:26;;;;;;;5.07;1.10;;;;;;;;;;4114499;34;20417;-79
2021/04/09 10:29:54;;;;;;;3.22;1.40;;;;;;;;;;4115504;34;20460;-78
2021/04/09 10:32:22;;;;;;;4.12;1.40;;;;;;;;;;4120225;34;20089;-82
2021/04/09 10:34:51;;;;;;;3.95;1.50;;;;;;;;;;4116105;34;20162;-81
2021/04/09 10:37:21;;;;;;;3.20;1.30;;;;;;;;;;4121041;34;20108;-80
2021/04/09 10:39:50;;;;;;;4.68;1.42;;;;;;;;;;4118144;34;20096;-81
2021/04/09 10:42:18;;;;;;;6.85;1.45;;;;;;;;;;4114669;34;20085;-80
2021/04/09 10:44:46;;;;;;;5.18;1.40;;;;;;;;;;4123867;34;20144;-82
2021/04/09 10:47:14;;;;;;;5.25;1.60;;;;;;;;;;4124303;34;20453;-78
2021/04/09 10:49:44;;;;;;;4.30;1.40;;;;;;;;;;4118579;34;20064;-77
2021/04/09 10:52:12;;;;;;;4.15;1.40;;;;;;;;;;4118640;34;20464;-78
2021/04/09 10:54:44;;;;;;;3.58;1.40;;;;;;;;;;4117292;34;20120;-78
2021/04/09 10:57:16;;;;;;;3.62;1.50;;;;;;;;;;4127858;34;20093;-78
2021/04/09 10:59:45;;;;;;;4.18;1.17;;;;;;;;;;4118184;34;20734;-78
2021/04/09 11:02:24;;;;;;;3.70;1.42;;;;;;;;;;4115426;34;20101;-79
2021/04/09 11:04:55;;;;;;;2.53;1.15;;;;;;;;;;4114794;34;20468;-77
2021/04/09 11:07:40;;;;;;;3.58;1.40;;;;;;;;;;4117790;34;20104;-77
2021/04/09 11:10:36;;;;;;;4.18;1.42;;;;;;;;;;4114223;34;20080;-78
2021/04/09 11:13:08;;;;;;;4.68;1.45;;;;;;;;;;4112893;34;20113;-77
2021/04/09 11:15:40;;;;;;;5.85;1.60;;;;;;;;;;4115536;34;20073;-77
2021/04/09 11:18:08;;;;;;;2.95;1.27;;;;;;;;;;4120022;34;20126;-77
2021/04/09 11:20:43;;;;;;;3.45;1.70;;;;;;;;;;4113180;34;20053;-77
2021/04/09 11:23:14;;;;;;;5.05;1.30;;;;;;;;;;4114833;34;20117;-77
2021/04/09 11:25:46;;;;;;;5.03;1.67;;;;;;;;;;4120447;34;20101;-76
2021/04/09 11:28:22;;;;;;;4.80;1.50;;;;;;;;;;4120767;34;20135;-78
2021/04/09 11:30:56;;;;;;;4.82;1.58;;;;;;;;;;4123190;34;20476;-77
2021/04/09 11:33:35;;;;;;;3.78;1.27;;;;;;;;;;4123545;34;20119;-77
2021/04/09 11:36:20;;;;;;;4.00;1.40;;;;;;;;;;4123819;34;20077;-77
2021/04/09 11:38:50;;;;;;;4.28;1.40;;;;;;;;;;4122955;34;20083;-77
2021/04/09 11:41:29;;;;;;;5.53;1.33;;;;;;;;;;4126065;34;20088;-77
2021/04/09 11:43:57;;;;;;;2.72;1.17;;;;;;;;;;4117458;34;20112;-77
2021/04/09 11:46:35;;;;;;;4.97;1.30;;;;;;;;;;4124135;34;20068;-79
2021/04/09 11:49:04;;;;;;;3.33;1.37;;;;;;;;;;4119908;34;20078;-79
2021/04/09 11:51:37;;;;;;;3.00;1.15;;;;;;;;;;4115570;34;20473;-79
2021/04/09 11:54:06;;;;;;;4.75;1.30;;;;;;;;;;4118575;34;20272;-79
2021/04/09 11:56:37;;;;;;;4.10;1.40;;;;;;;;;;4120690;34;20072;-79
2021/04/09 11:59:15;;;;;;;7.57;1.60;;;;;;;;;;4119230;34;20087;-79
2021/04/09 12:01:44;;;;;;;4.78;1.60;;;;;;;;;;4120475;34;20060;-79
2021/04/09 12:04:31;;;;;;;3.97;1.27;;;;;;;;;;4125474;34;20057;-79
2021/04/09 12:07:16;;;;;;;3.22;1.30;;;;;;;;;;4119313;34;20187;-80
2021/04/09 12:09:46;;;;;;;3.75;1.10;;;;;;;;;;4122958;34;20069;-81
2021/04/09 12:12:14;;;;;;;5.90;1.48;;;;;;;;;;4124556;34;20239;-80
2021/04/09 12:14:44;;;;;;;3.15;1.20;;;;;;;;;;4117671;34;20465;-80
2021/04/09 12:17:14;;;;;;;3.47;1.12;;;;;;;;;;4120040;34;20131;-79
2021/04/09 12:19:42;;;;;;;5.68;1.60;;;;;;;;;;4116114;34;20087;-79
2021/04/09 12:22:11;;;;;;;4.37;1.17;;;;;;;;;;4115349;34;20077;-78
2021/04/09 12:24:39;;;;;;;3.67;1.15;;;;;;;;;;4122267;34;20064;-80
2021/04/09 12:27:09;;;;;;;4.72;1.20;;;;;;;;;;4112342;34;20399;-80
2021/04/09 12:29:37;;;;;;;3.28;1.10;;;;;;;;;;4122058;34;20592;-80
2021/04/09 12:32:06;;;;;;;3.58;1.30;;;;;;;;;;4119010;34;20057;-79
2021/04/09 12:34:35;;;;;;;3.75;1.40;;;;;;;;;;4110027;34;20045;-80
2021/04/09 12:37:23;;;;;;;3.95;1.35;;;;;;;;;;4110022;34;20073;-81
2021/04/09 12:39:51;;;;;;;4.00;1.30;;;;;;;;;;4105781;34;20163;-81
2021/04/09 12:42:19;;;;;;;3.60;1.00;;;;;;;;;;4110053;34;20179;-80
2021/04/09 12:44:48;;;;;;;4.40;1.40;;;;;;;;;;4118268;34;20159;-80
2021/04/09 12:47:17;;;;;;;3.95;1.20;;;;;;;;;;4112983;34;20139;-80
2021/04/09 12:49:45;;;;;;;5.45;1.23;;;;;;;;;;4112590;34;20193;-81
2021/04/09 12:52:14;;;;;;;3.83;1.08;;;;;;;;;;4111876;34;20680;-80
2021/04/09 12:54:48;;;;;;;5.40;1.17;;;;;;;;;;4108849;34;20603;-80
2021/04/09 12:57:17;;;;;;;4.40;1.30;;;;;;;;;;4108653;34;21108;-82
2021/04/09 12:59:46;;;;;;;3.08;1.00;;;;;;;;;;4117714;34;20108;-79
2021/04/09 13:02:26;;;;;;;4.15;1.27;;;;;;;;;;4120996;34;20151;-78
2021/04/09 13:04:54;;;;;;;5.05;1.30;;;;;;;;;;4110194;34;20132;-80
2021/04/09 13:07:22;;;;;;;4.65;1.25;;;;;;;;;;4112029;34;20082;-79
2021/04/09 13:09:50;;;;;;;3.37;1.08;;;;;;;;;;4109330;34;20092;-78
2021/04/09 13:12:19;;;;;;;4.07;1.17;;;;;;;;;;4115269;34;20177;-78
2021/04/09 13:14:47;;;;;;;3.72;1.20;;;;;;;;;;4115916;34;20132;-80
2021/04/09 13:17:16;;;;;;;6.87;1.30;;;;;;;;;;4122994;34;20099;-77
2021/04/09 13:19:44;;;;;;;4.97;1.48;;;;;;;;;;4130482;34;20065;-79
2021/04/09 13:22:12;;;;;;;4.10;1.27;;;;;;;;;;4113958;34;20164;-78
2021/04/09 13:24:40;;;;;;;3.92;1.27;;;;;;;;;;4119902;34;20054;-78
2021/04/09 13:27:14;;;;;;;6.57;1.42;;;;;;;;;;4119540;34;20564;-77
2021/04/09 13:29:44;;;;;;;4.80;1.37;;;;;;;;;;4124223;34;20110;-77
2021/04/09 13:32:13;;;;;;;6.50;1.50;;;;;;;;;;4128929;34;20087;-78
2021/04/09 13:34:41;;;;;;;6.55;1.45;;;;;;;;;;4120838;34;20101;-78
2021/04/09 13:37:09;;;;;;;4.40;1.10;;;;;;;;;;4127395;34;20069;-79
2021/04/09 13:39:37;;;;;;;3.78;1.05;;;;;;;;;;4128162;34;20060;-76
2021/04/09 13:42:06;;;;;;;6.65;1.60;;;;;;;;;;4122945;34;20048;-78
2021/04/09 13:44:34;;;;;;;6.15;1.60;;;;;;;;;;4117727;34;20131;-78
2021/04/09 13:47:03;;;;;;;4.22;1.52;;;;;;;;;;4119753;34;20120;-77
2021/04/09 13:49:31;;;;;;;5.90;1.50;;;;;;;;;;4123066;34;20124;-79
2021/04/09 13:51:59;;;;;;;5.18;1.35;;;;;;;;;;4121928;34;20077;-79
2021/04/09 13:54:27;;;;;;;4.28;1.30;;;;;;;;;;4122541;34;20071;-78
2021/04/09 13:56:54;;;;;;;3.65;1.10;;;;;;;;;;4121035;34;20096;-79
2021/04/09 13:59:23;;;;;;;4.25;1.08;;;;;;;;;;4121883;34;20182;-80
2021/04/09 14:01:51;;;;;;;4.20;1.05;;;;;;;;;;4120889;34;20127;-79
2021/04/09 14:04:23;;;;;;;4.65;1.05;;;;;;;;;;4125914;34;20065;-77
2021/04/09 14:06:51;;;;;;;5.30;1.15;;;;;;;;;;4114036;34;20120;-79
2021/04/09 14:09:20;;;;;;;4.97;1.15;;;;;;;;;;4125398;34;20065;-77
2021/04/09 14:11:48;;;;;;;5.15;1.15;;;;;;;;;;4117323;34;20117;-78
2021/04/09 14:14:16;;;;;;;3.33;1.12;;;;;;;;;;4115760;34;20073;-78
2021/04/09 14:16:45;;;;;;;3.87;1.17;;;;;;;;;;4117251;34;20138;-78
2021/04/09 14:19:13;;;;;;;4.55;1.25;;;;;;;;;;4114467;34;20163;-78
2021/04/09 14:21:41;;;;;;;5.87;1.45;;;;;;;;;;4113946;34;20180;-77
2021/04/09 14:24:09;;;;;;;4.85;1.30;;;;;;;;;;4113328;34;20084;-78
2021/04/09 14:26:37;;;;;;;4.85;1.20;;;;;;;;;;4118923;34;20065;-79
2021/04/09 14:29:05;;;;;;;5.07;1.33;;;;;;;;;;4118735;34;20045;-77
2021/04/09 14:31:33;;;;;;;6.60;1.40;;;;;;;;;;4115067;34;20061;-78
2021/04/09 14:34:01;;;;;;;5.53;1.30;;;;;;;;;;4114859;34;20146;-79
2021/04/09 14:36:29;;;;;;;7.60;1.50;;;;;;;;;;4116752;34;20086;-79
2021/04/09 14:38:57;;;;;;;5.80;1.52;;;;;;;;;;4117398;34;20057;-79
2021/04/09 14:41:25;;;;;;;5.62;1.10;;;;;;;;;;4116989;34;20053;-80
2021/04/09 14:43:53;;;;;;;8.00;1.80;;;;;;;;;;4126338;34;20053;-78
2021/04/09 14:46:21;;;;;;;6.43;1.45;;;;;;;;;;4123318;34;20547;-77
2021/04/09 14:48:49;;;;;;;7.68;1.35;;;;;;;;;;4117399;34;20065;-79
2021/04/09 14:51:17;;;;;;;4.43;1.30;;;;;;;;;;4117358;34;20057;-79
2021/04/09 14:53:45;;;;;;;4.50;1.35;;;;;;;;;;4121074;34;20519;-78
2021/04/09 14:56:13;;;;;;;8.43;1.75;;;;;;;;;;4118478;34;20370;-78
2021/04/09 14:58:41;;;;;;;5.03;1.17;;;;;;;;;;4114698;34;20726;-79